Time;durP1;ratioP1;P1;durP2;ratioP2;P2;SDS_P1;SDS_P2;PMS_P1;PMS_P2;Temp;Humidity;BMP_temperature;BMP_pressure;BME280_temperature;BME280_humidity;BME280_pressure;Samples;Min_cycle;Max_cycle;Signal;HPM_P1;HPM_P2
2021/03/06 00:02:58;;;;;;;1.58;0.90;;;19.90;44.80;;;;;;6199926;28;20035;-69
2021/03/06 00:05:58;;;;;;;1.35;1.00;;;19.90;44.70;;;;;;6199387;28;20031;-70
2021/03/06 00:08:58;;;;;;;0.75;0.65;;;19.90;44.70;;;;;;6199097;28;20034;-70
2021/03/06 00:11:59;;;;;;;1.30;0.90;;;19.90;44.80;;;;;;6199358;28;20033;-70
2021/03/06 00:14:59;;;;;;;1.25;0.73;;;19.90;44.80;;;;;;6199162;28;20046;-69
2021/03/06 00:18:00;;;;;;;0.80;0.60;;;19.90;44.80;;;;;;6198958;28;20086;-69
2021/03/06 00:21:01;;;;;;;1.25;0.70;;;19.90;44.90;;;;;;6199105;28;20037;-69
2021/03/06 00:24:01;;;;;;;1.13;0.75;;;19.90;44.90;;;;;;6198812;28;20053;-70
2021/03/06 00:27:02;;;;;;;0.88;0.70;;;19.90;44.80;;;;;;6198808;28;20125;-69
2021/03/06 00:30:11;;;;;;;1.13;0.73;;;19.90;44.90;;;;;;6198855;28;20030;-70
2021/03/06 00:33:12;;;;;;;0.75;0.70;;;20.00;45.00;;;;;;6198713;28;20030;-69
2021/03/06 00:36:12;;;;;;;1.52;0.77;;;19.90;44.90;;;;;;6197443;28;20497;-69
2021/03/06 00:39:13;;;;;;;1.13;0.75;;;19.90;44.80;;;;;;6198357;28;20034;-70
2021/03/06 00:42:13;;;;;;;1.27;0.63;;;19.90;44.90;;;;;;6166785;28;20089;-70
2021/03/06 00:45:14;;;;;;;1.60;0.90;;;19.90;44.90;;;;;;6160720;28;20812;-70
2021/03/06 00:48:14;;;;;;;1.35;0.80;;;19.90;44.90;;;;;;6150733;28;20039;-69
2021/03/06 00:51:16;;;;;;;1.65;0.88;;;19.90;44.90;;;;;;6210980;28;20018;-70
2021/03/06 00:54:17;;;;;;;1.77;0.98;;;19.90;44.90;;;;;;6198172;28;20889;-69
2021/03/06 00:57:18;;;;;;;1.02;0.77;;;19.90;44.90;;;;;;6198229;28;20034;-69
2021/03/06 01:00:18;;;;;;;1.63;1.02;;;19.90;45.00;;;;;;6182614;28;20573;-70
2021/03/06 01:03:19;;;;;;;1.30;0.85;;;19.90;44.90;;;;;;6198263;28;20532;-70
2021/03/06 01:06:19;;;;;;;1.17;0.70;;;19.90;44.90;;;;;;6197842;28;20037;-69
2021/03/06 01:09:20;;;;;;;1.00;0.85;;;19.90;45.00;;;;;;6197785;28;20119;-70
2021/03/06 01:12:20;;;;;;;1.10;0.85;;;19.90;44.90;;;;;;6197879;28;20022;-70
2021/03/06 01:15:21;;;;;;;1.10;0.80;;;19.90;44.90;;;;;;6197392;28;20027;-69
2021/03/06 01:18:22;;;;;;;0.77;0.65;;;19.90;45.00;;;;;;6198096;28;20042;-70
2021/03/06 01:21:23;;;;;;;1.10;0.70;;;19.90;44.90;;;;;;6191046;28;20050;-69
2021/03/06 01:24:23;;;;;;;1.00;0.70;;;19.90;44.90;;;;;;6197529;28;20026;-70
2021/03/06 01:27:24;;;;;;;0.90;0.70;;;19.90;44.90;;;;;;6197404;28;20103;-70
2021/03/06 01:30:25;;;;;;;1.10;0.82;;;19.90;45.00;;;;;;6193925;28;20023;-70
2021/03/06 01:33:25;;;;;;;1.90;1.10;;;19.90;45.00;;;;;;6197536;28;20034;-70
2021/03/06 01:36:26;;;;;;;1.45;0.80;;;19.90;44.90;;;;;;6197266;28;20433;-70
2021/03/06 01:39:26;;;;;;;0.82;0.70;;;19.90;45.00;;;;;;6197188;28;20035;-69
2021/03/06 01:42:27;;;;;;;3.17;0.93;;;19.90;44.90;;;;;;6196072;28;20370;-69
2021/03/06 01:45:27;;;;;;;1.00;0.80;;;19.90;45.00;;;;;;6197041;28;20022;-69
2021/03/06 01:48:28;;;;;;;1.02;0.80;;;19.90;45.00;;;;;;6197116;28;20623;-70
2021/03/06 01:51:28;;;;;;;1.08;0.80;;;19.90;45.30;;;;;;6193722;28;20156;-70
2021/03/06 01:54:29;;;;;;;1.30;0.90;;;19.90;45.00;;;;;;6195703;28;20054;-69
2021/03/06 01:57:30;;;;;;;1.23;1.02;;;19.90;45.00;;;;;;6196705;28;20060;-69
2021/03/06 02:00:31;;;;;;;1.30;0.90;;;19.90;45.00;;;;;;6196702;28;20023;-69
2021/03/06 02:03:32;;;;;;;1.10;0.80;;;19.90;45.00;;;;;;6197058;28;20750;-69
2021/03/06 02:06:32;;;;;;;1.05;0.70;;;19.90;45.10;;;;;;6196750;28;20046;-70
2021/03/06 02:09:32;;;;;;;1.52;1.10;;;19.90;45.00;;;;;;6196404;28;20669;-69
2021/03/06 02:12:56;;;;;;;1.15;1.00;;;19.90;45.00;;;;;;6196643;28;20236;-69
2021/03/06 02:16:21;;;;;;;1.25;0.90;;;19.90;45.00;;;;;;6196201;28;20054;-70
2021/03/06 02:19:44;;;;;;;1.00;0.80;;;19.90;45.00;;;;;;6196390;28;20058;-69
2021/03/06 02:23:13;;;;;;;2.10;1.00;;;19.80;44.90;;;;;;6196481;28;20041;-69
2021/03/06 02:26:41;;;;;;;1.42;0.80;;;19.90;45.00;;;;;;6195624;28;20066;-69
2021/03/06 02:30:03;;;;;;;0.85;0.65;;;19.90;45.00;;;;;;6196459;28;20022;-69
2021/03/06 02:33:05;;;;;;;1.20;0.82;;;19.90;45.00;;;;;;6196291;28;20481;-69
2021/03/06 02:36:11;;;;;;;1.48;1.00;;;19.80;44.80;;;;;;6196132;28;20030;-69
2021/03/06 02:39:15;;;;;;;1.23;0.85;;;19.90;45.00;;;;;;6196268;28;20038;-69
2021/03/06 02:42:20;;;;;;;1.50;1.07;;;19.90;45.00;;;;;;6196147;28;20105;-69
2021/03/06 02:45:23;;;;;;;0.82;0.60;;;19.80;44.90;;;;;;6196109;28;20018;-70
2021/03/06 02:48:23;;;;;;;1.10;0.77;;;19.80;45.00;;;;;;6195987;28;20038;-69
2021/03/06 02:51:24;;;;;;;1.27;0.93;;;19.80;44.90;;;;;;6195960;28;20689;-70
2021/03/06 02:54:24;;;;;;;0.90;0.80;;;19.80;45.00;;;;;;6195788;28;20161;-70
2021/03/06 02:58:08;;;;;;;1.33;0.95;;;19.80;44.90;;;;;;6194138;28;20050;-69
2021/03/06 03:01:21;;;;;;;1.10;0.80;;;19.80;44.90;;;;;;6195807;28;20136;-69
2021/03/06 03:04:55;;;;;;;0.82;0.75;;;19.80;45.00;;;;;;6195799;28;20046;-70
2021/03/06 03:08:10;;;;;;;1.10;0.85;;;19.80;44.90;;;;;;6195616;28;20042;-70
2021/03/06 03:11:13;;;;;;;1.30;0.80;;;19.80;44.90;;;;;;6195824;28;20038;-69
2021/03/06 03:14:20;;;;;;;1.20;1.00;;;19.80;45.00;;;;;;6195759;28;20034;-69
2021/03/06 03:17:36;;;;;;;1.00;0.80;;;19.80;44.90;;;;;;6195565;28;20104;-70
2021/03/06 03:20:44;;;;;;;1.05;0.80;;;19.80;44.80;;;;;;6196364;28;20058;-70
2021/03/06 03:23:58;;;;;;;1.20;0.70;;;19.90;45.40;;;;;;6195271;28;20034;-70
2021/03/06 03:26:58;;;;;;;1.20;0.80;;;19.80;44.90;;;;;;6195550;28;20042;-69
2021/03/06 03:30:00;;;;;;;1.00;0.80;;;19.80;44.90;;;;;;6195490;28;20049;-69
2021/03/06 03:33:04;;;;;;;0.85;0.63;;;19.90;45.10;;;;;;6192011;28;20038;-69
2021/03/06 03:36:05;;;;;;;1.48;1.08;;;19.80;44.90;;;;;;6195667;28;20026;-69
2021/03/06 03:39:07;;;;;;;1.48;0.90;;;19.80;44.90;;;;;;6198676;28;20429;-69
2021/03/06 03:42:08;;;;;;;1.33;0.80;;;19.80;45.00;;;;;;6200377;28;20113;-70
2021/03/06 03:45:11;;;;;;;1.08;0.77;;;19.80;45.00;;;;;;6199633;28;20106;-70
2021/03/06 03:48:12;;;;;;;1.25;0.90;;;19.80;45.00;;;;;;6199716;28;20062;-69
2021/03/06 03:51:13;;;;;;;1.20;0.80;;;19.80;45.00;;;;;;6200172;28;20060;-69
2021/03/06 03:54:16;;;;;;;0.95;0.73;;;19.80;45.00;;;;;;6199742;28;20093;-70
2021/03/06 03:57:17;;;;;;;1.92;0.70;;;19.80;45.00;;;;;;6199632;28;20029;-69
2021/03/06 04:00:20;;;;;;;1.00;0.80;;;19.90;45.10;;;;;;6199713;28;20113;-70
2021/03/06 04:03:20;;;;;;;0.95;0.80;;;19.80;45.10;;;;;;6199499;28;20076;-70
2021/03/06 04:06:21;;;;;;;1.00;0.80;;;19.90;45.10;;;;;;6199474;28;20034;-70
2021/03/06 04:09:22;;;;;;;1.70;0.82;;;19.80;45.10;;;;;;6199505;28;20045;-69
2021/03/06 04:12:22;;;;;;;1.90;1.00;;;19.80;45.00;;;;;;6199502;28;20029;-69
2021/03/06 04:15:24;;;;;;;2.03;0.98;;;19.80;45.00;;;;;;6199598;28;20023;-69
2021/03/06 04:18:24;;;;;;;0.90;0.60;;;19.80;45.00;;;;;;6199153;28;20109;-69
2021/03/06 04:21:25;;;;;;;0.82;0.82;;;19.80;44.90;;;;;;6199406;28;20057;-69
2021/03/06 04:24:25;;;;;;;1.08;0.75;;;19.80;45.00;;;;;;6199037;28;20473;-69
2021/03/06 04:27:26;;;;;;;1.60;0.90;;;19.80;45.00;;;;;;6199088;28;20077;-70
2021/03/06 04:30:26;;;;;;;1.52;1.00;;;19.80;45.00;;;;;;6199095;28;20080;-69
2021/03/06 04:33:27;;;;;;;1.10;0.80;;;19.80;45.00;;;;;;6197643;28;20037;-69
2021/03/06 04:36:28;;;;;;;1.73;0.90;;;19.80;45.00;;;;;;6150926;28;20072;-69
2021/03/06 04:39:28;;;;;;;1.40;1.00;;;19.80;45.00;;;;;;6178893;28;20034;-70
2021/03/06 04:42:28;;;;;;;1.48;0.70;;;19.80;45.00;;;;;;6199058;28;20027;-69
2021/03/06 04:45:29;;;;;;;1.75;0.90;;;19.80;45.00;;;;;;6198668;28;20027;-69
2021/03/06 04:48:30;;;;;;;1.10;0.98;;;19.80;45.00;;;;;;6198117;28;20117;-69
2021/03/06 04:51:30;;;;;;;1.50;0.80;;;19.80;44.90;;;;;;6198731;28;20023;-69
2021/03/06 04:54:31;;;;;;;1.08;0.98;;;19.80;45.00;;;;;;6198559;28;20054;-69
2021/03/06 04:57:31;;;;;;;1.42;0.98;;;19.80;45.00;;;;;;6198636;28;20025;-69
2021/03/06 05:00:35;;;;;;;1.23;1.00;;;19.80;45.00;;;;;;6198198;28;20058;-69
2021/03/06 05:03:35;;;;;;;1.00;0.80;;;19.80;45.00;;;;;;6198377;28;20108;-69
2021/03/06 05:06:36;;;;;;;1.40;1.10;;;19.80;45.00;;;;;;6198296;28;20041;-69
2021/03/06 05:09:37;;;;;;;1.67;0.98;;;19.80;45.00;;;;;;6198382;28;20064;-70
2021/03/06 05:12:37;;;;;;;1.23;0.93;;;19.80;45.00;;;;;;6198240;28;20023;-70
2021/03/06 05:15:38;;;;;;;1.25;0.90;;;19.80;45.00;;;;;;6197978;28;20042;-69
2021/03/06 05:18:38;;;;;;;1.25;0.85;;;19.80;44.80;;;;;;6198080;28;20026;-69
2021/03/06 05:21:39;;;;;;;1.13;0.85;;;19.80;44.90;;;;;;6197415;28;20026;-69
2021/03/06 05:24:39;;;;;;;1.52;0.90;;;19.80;44.80;;;;;;6198191;28;20515;-69
2021/03/06 05:27:40;;;;;;;0.93;0.70;;;19.80;44.80;;;;;;6197954;28;20416;-69
2021/03/06 05:30:40;;;;;;;1.50;0.90;;;19.80;44.80;;;;;;6197753;28;20022;-70
2021/03/06 05:33:41;;;;;;;1.08;0.70;;;19.90;44.90;;;;;;6197547;28;20493;-69
2021/03/06 05:36:41;;;;;;;1.13;0.82;;;19.80;44.80;;;;;;6197403;28;20072;-70
2021/03/06 05:39:42;;;;;;;1.58;0.90;;;19.90;44.90;;;;;;6197303;28;20034;-69
2021/03/06 05:42:43;;;;;;;1.40;0.80;;;19.80;44.80;;;;;;6197350;28;20027;-69
2021/03/06 05:45:48;;;;;;;0.85;0.70;;;19.80;44.80;;;;;;6197141;28;20485;-69
2021/03/06 05:48:49;;;;;;;2.22;1.00;;;19.80;44.80;;;;;;6197279;28;20054;-70
2021/03/06 05:51:51;;;;;;;1.20;0.80;;;19.90;44.80;;;;;;6197087;28;20038;-69
2021/03/06 05:54:55;;;;;;;1.00;0.80;;;19.80;44.70;;;;;;6196944;28;20034;-70
2021/03/06 05:57:56;;;;;;;1.50;0.90;;;19.80;44.80;;;;;;6196935;28;20093;-70
2021/03/06 06:00:58;;;;;;;1.10;0.65;;;19.80;44.80;;;;;;6196162;28;20053;-69
2021/03/06 06:04:02;;;;;;;1.10;0.90;;;19.80;44.70;;;;;;6197080;28;20388;-69
2021/03/06 06:07:03;;;;;;;1.20;0.90;;;19.90;44.80;;;;;;6196647;28;20389;-69
2021/03/06 06:10:05;;;;;;;0.73;0.65;;;19.80;44.70;;;;;;6196754;28;20099;-70
2021/03/06 06:13:05;;;;;;;1.08;0.80;;;19.80;44.80;;;;;;6196830;28;20028;-69
2021/03/06 06:16:06;;;;;;;1.00;0.80;;;19.80;44.80;;;;;;6196628;28;20042;-70
2021/03/06 06:19:06;;;;;;;1.65;0.93;;;19.90;44.80;;;;;;6196514;28;20495;-69
2021/03/06 06:22:23;;;;;;;1.15;0.75;;;19.90;44.80;;;;;;6195930;28;20081;-70
2021/03/06 06:25:31;;;;;;;2.53;0.95;;;19.80;44.70;;;;;;6196199;28;20542;-69
2021/03/06 06:28:46;;;;;;;1.73;0.80;;;19.80;44.70;;;;;;6196370;28;20536;-70
2021/03/06 06:31:53;;;;;;;0.95;0.85;;;19.90;44.80;;;;;;6196417;28;20030;-70
2021/03/06 06:34:58;;;;;;;1.08;0.80;;;19.90;44.80;;;;;;6196158;28;20033;-70
2021/03/06 06:38:03;;;;;;;0.90;0.75;;;19.80;44.80;;;;;;6196183;28;20034;-69
2021/03/06 06:41:04;;;;;;;1.20;1.00;;;19.90;44.80;;;;;;6196532;28;20034;-69
2021/03/06 06:44:07;;;;;;;1.10;0.75;;;19.80;44.80;;;;;;6196169;28;20033;-70
2021/03/06 06:47:12;;;;;;;1.73;0.90;;;19.90;44.80;;;;;;6195633;28;20033;-69
2021/03/06 06:50:14;;;;;;;0.88;0.75;;;19.80;44.70;;;;;;6195957;28;20023;-70
2021/03/06 06:53:25;;;;;;;1.17;0.90;;;19.80;44.70;;;;;;6195922;28;20042;-69
2021/03/06 06:56:25;;;;;;;1.08;0.82;;;19.80;44.70;;;;;;6195954;28;20022;-69
2021/03/06 06:59:26;;;;;;;0.80;0.77;;;19.80;45.40;;;;;;6196154;28;20034;-69
2021/03/06 07:02:27;;;;;;;0.93;0.70;;;19.90;44.80;;;;;;6192225;28;20118;-69
2021/03/06 07:05:35;;;;;;;1.27;0.80;;;19.80;44.70;;;;;;6196098;28;20481;-69
2021/03/06 07:08:35;;;;;;;1.13;0.75;;;19.80;44.60;;;;;;6185938;28;20042;-69
2021/03/06 07:11:36;;;;;;;1.33;0.90;;;19.80;44.60;;;;;;6177345;28;20478;-69
2021/03/06 07:14:37;;;;;;;1.10;0.90;;;19.80;44.70;;;;;;6200735;28;20436;-70
2021/03/06 07:17:40;;;;;;;0.88;0.73;;;19.80;44.70;;;;;;6200439;28;20046;-69
2021/03/06 07:20:41;;;;;;;0.80;0.80;;;19.90;44.70;;;;;;6200855;28;20117;-69
2021/03/06 07:23:42;;;;;;;0.80;0.65;;;19.90;44.80;;;;;;6200302;28;20030;-69
2021/03/06 07:26:42;;;;;;;4.13;0.80;;;19.80;44.60;;;;;;6200262;28;20050;-69
2021/03/06 07:29:43;;;;;;;0.80;0.68;;;19.80;44.70;;;;;;6200573;28;20026;-69
2021/03/06 07:32:46;;;;;;;0.80;0.63;;;19.80;44.70;;;;;;6200410;28;20485;-70
2021/03/06 07:35:48;;;;;;;1.25;0.80;;;19.80;44.70;;;;;;6199068;28;20508;-69
2021/03/06 07:38:49;;;;;;;1.08;0.80;;;19.80;44.70;;;;;;6200245;28;20052;-69
2021/03/06 07:41:58;;;;;;;0.98;0.80;;;19.80;44.60;;;;;;6199246;28;20026;-69
2021/03/06 07:44:59;;;;;;;1.88;0.85;;;19.80;44.60;;;;;;6200085;28;20076;-69
2021/03/06 07:48:13;;;;;;;1.25;0.70;;;19.80;44.70;;;;;;6199507;28;20034;-70
2021/03/06 07:51:15;;;;;;;0.93;0.63;;;19.80;44.70;;;;;;6199337;28;20050;-70
2021/03/06 07:54:17;;;;;;;3.85;0.73;;;19.80;44.70;;;;;;6199365;28;20030;-70
2021/03/06 07:57:18;;;;;;;1.27;0.60;;;19.80;44.60;;;;;;6197998;28;20034;-69
2021/03/06 08:00:57;;;;;;;1.95;0.88;;;19.80;44.40;;;;;;6199905;28;20485;-69
2021/03/06 08:04:00;;;;;;;2.00;1.00;;;19.90;44.70;;;;;;6199207;28;20076;-69
2021/03/06 08:07:13;;;;;;;0.85;0.70;;;19.90;44.80;;;;;;6199471;28;20039;-69
2021/03/06 08:10:13;;;;;;;0.75;0.60;;;19.80;44.50;;;;;;6199572;28;20073;-69
2021/03/06 08:13:36;;;;;;;0.90;0.60;;;19.90;44.70;;;;;;6199827;28;20026;-70
2021/03/06 08:16:39;;;;;;;1.08;0.65;;;19.80;44.70;;;;;;6199380;28;20050;-69
2021/03/06 08:19:43;;;;;;;0.73;0.65;;;19.90;44.80;;;;;;6199178;28;20121;-69
2021/03/06 08:22:43;;;;;;;1.42;0.80;;;19.90;44.80;;;;;;6198740;28;20026;-70
2021/03/06 08:25:45;;;;;;;1.08;0.50;;;19.90;44.70;;;;;;6199023;28;20041;-69
2021/03/06 08:28:45;;;;;;;0.98;0.70;;;19.90;44.70;;;;;;6198645;28;20035;-69
2021/03/06 08:31:56;;;;;;;1.38;0.80;;;19.90;44.70;;;;;;6199196;28;20034;-69
2021/03/06 08:35:17;;;;;;;1.00;0.68;;;19.90;44.40;;;;;;6198802;28;20022;-69
2021/03/06 08:38:30;;;;;;;0.88;0.68;;;19.90;44.70;;;;;;6198684;28;20022;-69
2021/03/06 08:41:31;;;;;;;3.10;0.90;;;19.90;44.60;;;;;;6198898;28;20030;-69
2021/03/06 08:44:31;;;;;;;0.85;0.60;;;19.90;44.70;;;;;;6198594;28;20076;-70
2021/03/06 08:47:37;;;;;;;1.13;0.73;;;19.90;44.70;;;;;;6198287;28;20042;-69
2021/03/06 08:50:37;;;;;;;1.30;0.85;;;19.90;44.70;;;;;;6198508;28;20516;-69
2021/03/06 08:53:38;;;;;;;1.65;0.70;;;19.90;45.30;;;;;;6198488;28;20022;-69
2021/03/06 08:56:39;;;;;;;0.77;0.45;;;19.90;44.60;;;;;;6198581;28;20540;-70
2021/03/06 08:59:39;;;;;;;1.17;0.73;;;19.90;44.30;;;;;;6198345;28;20109;-70
2021/03/06 09:02:40;;;;;;;0.70;0.60;;;19.90;44.40;;;;;;6183156;28;20031;-69
2021/03/06 09:05:42;;;;;;;2.33;0.70;;;19.90;44.60;;;;;;6194492;28;20027;-70
2021/03/06 09:08:53;;;;;;;0.50;0.50;;;19.90;44.60;;;;;;6197995;28;20027;-70
2021/03/06 09:11:57;;;;;;;0.85;0.65;;;19.90;44.60;;;;;;6193799;28;20027;-69
2021/03/06 09:14:58;;;;;;;1.30;0.75;;;19.90;44.60;;;;;;6187476;28;20026;-69
2021/03/06 09:18:00;;;;;;;1.48;0.80;;;19.90;45.40;;;;;;6183912;28;20047;-70
2021/03/06 09:21:08;;;;;;;1.88;0.70;;;19.90;44.70;;;;;;6194701;28;20033;-69
2021/03/06 09:24:09;;;;;;;0.93;0.57;;;19.90;44.70;;;;;;6197762;28;20460;-69
2021/03/06 09:27:09;;;;;;;0.82;0.50;;;19.90;45.40;;;;;;6197732;28;20026;-69
2021/03/06 09:30:24;;;;;;;1.70;0.70;;;19.90;44.80;;;;;;6197520;28;20105;-69
2021/03/06 09:33:29;;;;;;;1.93;0.70;;;19.90;44.80;;;;;;6197666;28;20030;-70
2021/03/06 09:36:31;;;;;;;0.98;0.47;;;19.90;44.90;;;;;;6197329;28;20022;-69
2021/03/06 09:39:32;;;;;;;2.15;0.70;;;19.90;44.90;;;;;;6197382;28;20018;-69
2021/03/06 09:42:32;;;;;;;1.13;0.60;;;19.90;45.00;;;;;;6197653;28;20033;-70
2021/03/06 09:45:33;;;;;;;1.50;0.45;;;19.90;45.00;;;;;;6197332;28;20076;-69
2021/03/06 09:48:33;;;;;;;0.88;0.60;;;19.90;45.10;;;;;;6160815;28;20134;-70
2021/03/06 09:51:42;;;;;;;1.27;0.75;;;19.90;45.20;;;;;;6190677;28;20561;-70
2021/03/06 09:54:42;;;;;;;1.05;0.50;;;19.90;45.20;;;;;;6197160;28;20026;-70
2021/03/06 09:57:43;;;;;;;1.17;0.68;;;19.90;45.20;;;;;;6196851;28;20019;-70
2021/03/06 10:00:44;;;;;;;1.67;0.75;;;19.90;45.20;;;;;;6196547;28;20034;-69
2021/03/06 10:03:48;;;;;;;1.10;0.80;;;19.90;45.30;;;;;;6197026;28;20060;-70
2021/03/06 10:06:51;;;;;;;1.17;0.60;;;19.90;45.30;;;;;;6196803;28;20019;-70
2021/03/06 10:09:52;;;;;;;1.20;0.40;;;19.90;45.30;;;;;;6196851;28;20464;-69
2021/03/06 10:12:55;;;;;;;0.90;0.60;;;20.00;45.40;;;;;;6197036;28;20050;-70
2021/03/06 10:15:57;;;;;;;0.70;0.60;;;19.90;45.30;;;;;;6196485;28;20045;-69
2021/03/06 10:19:01;;;;;;;1.02;0.50;;;19.90;45.30;;;;;;6196579;28;20097;-70
2021/03/06 10:22:05;;;;;;;0.80;0.70;;;19.90;45.40;;;;;;6196281;28;20109;-70
2021/03/06 10:25:06;;;;;;;0.70;0.70;;;19.90;45.40;;;;;;6196400;28;20061;-69
2021/03/06 10:28:11;;;;;;;0.85;0.52;;;19.90;45.40;;;;;;6196597;28;20069;-69
2021/03/06 10:31:31;;;;;;;0.55;0.50;;;19.90;45.40;;;;;;6196390;28;20413;-69
2021/03/06 10:34:34;;;;;;;1.38;0.85;;;19.90;45.40;;;;;;6196439;28;20026;-69
2021/03/06 10:37:34;;;;;;;1.15;0.57;;;19.90;45.40;;;;;;6196188;28;20438;-69
2021/03/06 10:40:47;;;;;;;0.93;0.60;;;20.00;45.50;;;;;;6196168;28;20076;-69
2021/03/06 10:43:55;;;;;;;1.08;0.70;;;20.00;45.50;;;;;;6196221;28;20022;-69
2021/03/06 10:47:00;;;;;;;0.80;0.55;;;20.00;45.60;;;;;;6195452;28;20027;-69
2021/03/06 10:50:01;;;;;;;0.80;0.60;;;20.00;45.50;;;;;;6196232;28;20374;-69
2021/03/06 10:53:16;;;;;;;1.35;0.60;;;20.00;45.60;;;;;;6196142;28;20124;-69
2021/03/06 10:56:20;;;;;;;0.75;0.50;;;20.00;45.50;;;;;;6196087;28;20125;-70
2021/03/06 10:59:33;;;;;;;1.33;0.50;;;20.00;45.50;;;;;;6195993;28;20111;-70
2021/03/06 11:02:33;;;;;;;1.45;0.60;;;20.00;45.50;;;;;;6195813;28;20015;-69
2021/03/06 11:05:35;;;;;;;0.77;0.50;;;20.00;45.50;;;;;;6180586;28;20109;-69
2021/03/06 11:08:36;;;;;;;0.90;0.55;;;20.00;45.60;;;;;;6171650;28;20409;-70
2021/03/06 11:11:37;;;;;;;0.60;0.50;;;20.00;45.60;;;;;;6179320;28;20101;-70
2021/03/06 11:14:37;;;;;;;0.85;0.60;;;20.00;45.60;;;;;;6195726;28;20727;-69
2021/03/06 11:17:44;;;;;;;1.00;0.60;;;20.00;45.60;;;;;;6195260;28;20501;-70
2021/03/06 11:20:45;;;;;;;0.73;0.50;;;20.00;45.60;;;;;;6195772;28;20361;-70
2021/03/06 11:23:46;;;;;;;0.90;0.63;;;20.00;45.60;;;;;;6195571;28;20101;-69
2021/03/06 11:26:46;;;;;;;0.98;0.65;;;20.00;45.60;;;;;;6195563;28;20059;-69
2021/03/06 11:29:47;;;;;;;1.20;0.60;;;20.00;45.60;;;;;;6195693;28;20461;-69
2021/03/06 11:32:48;;;;;;;0.68;0.43;;;20.00;45.60;;;;;;6195596;28;20045;-69
2021/03/06 11:35:50;;;;;;;0.57;0.47;;;20.00;45.60;;;;;;6170484;28;20049;-69
2021/03/06 11:38:50;;;;;;;1.08;0.50;;;20.00;45.60;;;;;;6174042;28;20019;-69
2021/03/06 11:41:51;;;;;;;0.40;0.40;;;20.00;45.60;;;;;;6189154;28;20707;-69
2021/03/06 11:44:52;;;;;;;0.73;0.50;;;20.00;45.60;;;;;;6193676;28;20562;-69
2021/03/06 11:47:54;;;;;;;0.80;0.70;;;20.00;45.60;;;;;;6193721;28;20040;-69
2021/03/06 11:50:55;;;;;;;1.50;0.30;;;20.00;45.60;;;;;;6192705;28;20065;-69
2021/03/06 11:53:55;;;;;;;1.52;0.73;;;20.00;45.60;;;;;;6187247;28;20054;-69
2021/03/06 11:56:56;;;;;;;0.85;0.55;;;20.00;45.60;;;;;;6184323;28;20037;-70
2021/03/06 11:59:56;;;;;;;0.50;0.50;;;20.00;45.60;;;;;;6196949;28;20093;-69
2021/03/06 12:02:57;;;;;;;0.95;0.60;;;20.00;45.70;;;;;;6197301;28;20035;-69
2021/03/06 12:05:58;;;;;;;0.68;0.50;;;20.00;45.70;;;;;;6197779;28;20442;-69
2021/03/06 12:08:58;;;;;;;1.30;0.60;;;20.00;45.70;;;;;;6197396;28;20034;-69
2021/03/06 12:11:58;;;;;;;0.63;0.43;;;20.00;45.70;;;;;;6198001;28;20073;-69
2021/03/06 12:14:59;;;;;;;2.13;0.75;;;20.00;45.70;;;;;;6196421;28;20026;-69
2021/03/06 12:18:00;;;;;;;1.88;0.70;;;20.00;45.70;;;;;;6196192;28;20058;-69
2021/03/06 12:21:00;;;;;;;2.45;0.65;;;20.00;45.80;;;;;;6197083;28;20034;-70
2021/03/06 12:24:01;;;;;;;0.88;0.50;;;20.00;45.70;;;;;;6195712;28;20113;-69
2021/03/06 12:27:01;;;;;;;1.13;0.63;;;20.00;45.70;;;;;;6195005;28;20026;-69
2021/03/06 12:30:06;;;;;;;1.45;0.65;;;20.00;45.70;;;;;;6184062;28;20030;-70
2021/03/06 12:33:06;;;;;;;1.38;0.50;;;20.00;45.70;;;;;;6187745;28;20101;-69
2021/03/06 12:36:08;;;;;;;0.50;0.50;;;20.00;45.70;;;;;;6196065;28;20031;-69
2021/03/06 12:39:08;;;;;;;1.63;0.40;;;20.00;45.70;;;;;;6195328;28;20034;-69
2021/03/06 12:42:09;;;;;;;0.60;0.60;;;20.00;45.80;;;;;;6179229;28;20055;-69
2021/03/06 12:45:11;;;;;;;1.20;0.75;;;20.00;45.80;;;;;;6193349;28;20057;-69
2021/03/06 12:48:12;;;;;;;1.90;0.52;;;20.00;45.80;;;;;;6195557;28;20179;-70
2021/03/06 12:51:12;;;;;;;1.15;0.70;;;20.00;45.80;;;;;;6195609;28;20070;-69
2021/03/06 12:54:13;;;;;;;1.42;0.70;;;20.00;45.80;;;;;;6184240;28;20031;-69
2021/03/06 12:57:14;;;;;;;1.25;0.80;;;20.00;45.80;;;;;;6167700;28;20026;-69
2021/03/06 13:00:16;;;;;;;2.05;0.70;;;20.00;45.90;;;;;;6196018;28;20516;-69
2021/03/06 13:03:16;;;;;;;2.88;1.10;;;20.00;45.80;;;;;;6190113;28;20034;-69
2021/03/06 13:06:17;;;;;;;2.00;0.88;;;20.00;45.80;;;;;;6195701;28;20037;-69
2021/03/06 13:09:17;;;;;;;2.42;1.27;;;20.00;45.90;;;;;;6194896;28;20045;-70
2021/03/06 13:12:17;;;;;;;2.00;0.90;;;20.00;45.80;;;;;;6195758;28;20026;-69
2021/03/06 13:15:18;;;;;;;2.00;1.10;;;20.00;45.80;;;;;;6193535;28;20028;-69
2021/03/06 13:18:19;;;;;;;3.10;1.67;;;20.00;45.80;;;;;;6188544;28;20015;-69
2021/03/06 13:21:19;;;;;;;3.13;1.60;;;20.00;45.70;;;;;;6195877;28;20026;-69
2021/03/06 13:24:20;;;;;;;3.33;1.45;;;20.10;45.90;;;;;;6194567;28;20050;-69
2021/03/06 13:27:20;;;;;;;3.03;1.67;;;20.10;45.80;;;;;;6194168;28;20052;-69
2021/03/06 13:30:22;;;;;;;4.75;3.50;;;20.00;45.80;;;;;;6190190;28;20038;-69
2021/03/06 13:33:22;;;;;;;4.15;3.05;;;20.00;45.70;;;;;;6194942;28;20630;-69
2021/03/06 13:36:23;;;;;;;4.43;2.85;;;20.10;45.70;;;;;;6149743;28;20046;-69
2021/03/06 13:39:23;;;;;;;4.30;2.90;;;20.00;45.70;;;;;;6178336;28;20026;-69
2021/03/06 13:42:24;;;;;;;5.88;4.20;;;20.00;45.70;;;;;;6178663;28;20552;-69
2021/03/06 13:45:25;;;;;;;6.97;3.85;;;20.00;45.70;;;;;;6183113;28;20030;-69
2021/03/06 13:48:25;;;;;;;7.07;5.05;;;20.10;45.80;;;;;;6194292;28;20308;-69
2021/03/06 13:51:28;;;;;;;8.63;6.38;;;20.10;45.80;;;;;;6194426;28;20065;-69
2021/03/06 13:54:28;;;;;;;9.45;6.93;;;20.10;45.80;;;;;;6186587;28;20108;-69
2021/03/06 13:57:29;;;;;;;9.95;6.93;;;20.00;45.70;;;;;;6194494;28;20100;-70
2021/03/06 14:00:29;;;;;;;10.98;7.90;;;20.00;45.70;;;;;;6193788;28;20019;-69
2021/03/06 14:03:30;;;;;;;10.10;8.07;;;20.00;45.70;;;;;;6193843;28;20061;-69
2021/03/06 14:06:31;;;;;;;13.18;8.23;;;20.00;45.70;;;;;;6192216;28;20492;-69
2021/03/06 14:09:32;;;;;;;12.70;8.40;;;20.10;45.80;;;;;;6193726;28;20035;-69
2021/03/06 14:12:33;;;;;;;11.65;8.80;;;20.10;45.70;;;;;;6193955;28;20022;-70
2021/03/06 14:15:33;;;;;;;9.93;7.50;;;20.10;45.80;;;;;;6193119;28;20437;-70
2021/03/06 14:18:35;;;;;;;11.30;8.20;;;20.00;45.70;;;;;;6192768;28;20041;-69
2021/03/06 14:21:35;;;;;;;10.27;7.60;;;20.10;45.80;;;;;;6193166;28;20136;-69
2021/03/06 14:24:36;;;;;;;11.80;8.10;;;20.00;45.70;;;;;;6191980;28;20042;-69
2021/03/06 14:27:37;;;;;;;10.13;8.13;;;20.00;45.70;;;;;;6194278;28;20065;-69
2021/03/06 14:30:37;;;;;;;9.18;7.45;;;20.00;45.70;;;;;;6192129;28;20030;-69
2021/03/06 14:33:37;;;;;;;9.40;7.38;;;20.00;45.80;;;;;;6194147;28;20324;-69
2021/03/06 14:36:38;;;;;;;9.10;7.28;;;20.00;45.70;;;;;;6193000;28;20355;-69
2021/03/06 14:39:39;;;;;;;8.55;7.10;;;20.00;45.70;;;;;;6194116;28;20037;-69
2021/03/06 14:42:39;;;;;;;10.38;6.88;;;20.00;45.70;;;;;;6186422;28;20034;-69
2021/03/06 14:45:40;;;;;;;8.93;7.00;;;20.00;45.70;;;;;;6178709;28;20110;-68
2021/03/06 14:48:40;;;;;;;8.68;6.40;;;20.00;45.70;;;;;;6168645;28;20057;-68
2021/03/06 14:51:41;;;;;;;8.02;6.68;;;20.00;45.80;;;;;;6177984;28;20130;-69
2021/03/06 14:54:41;;;;;;;8.80;6.00;;;20.10;45.80;;;;;;6179412;28;20427;-70
2021/03/06 14:57:42;;;;;;;8.88;6.22;;;20.00;45.80;;;;;;6172821;28;20047;-69
2021/03/06 15:00:43;;;;;;;9.85;6.03;;;20.00;45.80;;;;;;6181929;28;20033;-69
2021/03/06 15:03:43;;;;;;;13.38;5.90;;;20.00;45.80;;;;;;6194317;28;20029;-67
2021/03/06 15:06:44;;;;;;;8.80;5.65;;;20.00;45.70;;;;;;6192186;28;20097;-70
2021/03/06 15:09:44;;;;;;;12.95;5.32;;;20.10;45.90;;;;;;6193737;28;20058;-68
2021/03/06 15:12:45;;;;;;;9.43;5.75;;;20.10;45.90;;;;;;6195197;28;20022;-70
2021/03/06 15:15:46;;;;;;;8.10;5.43;;;20.00;45.80;;;;;;6185472;28;20118;-69
2021/03/06 15:18:46;;;;;;;8.13;5.28;;;20.00;45.70;;;;;;6159806;28;20022;-70
2021/03/06 15:21:47;;;;;;;8.25;5.00;;;20.00;45.70;;;;;;6191089;28;20030;-69
2021/03/06 15:24:47;;;;;;;8.70;4.78;;;20.00;45.70;;;;;;6195164;28;20061;-69
2021/03/06 15:27:48;;;;;;;7.53;5.20;;;20.00;45.70;;;;;;6194028;28;20393;-69
2021/03/06 15:30:48;;;;;;;10.60;5.10;;;20.00;45.70;;;;;;6179803;28;20061;-68
2021/03/06 15:33:49;;;;;;;12.25;5.50;;;20.00;45.80;;;;;;6196561;28;20033;-69
2021/03/06 15:36:49;;;;;;;8.13;4.80;;;20.00;45.70;;;;;;6197934;28;20477;-69
2021/03/06 15:39:50;;;;;;;6.97;3.95;;;20.00;45.70;;;;;;6198452;28;20085;-69
2021/03/06 15:42:50;;;;;;;12.85;4.55;;;20.00;45.70;;;;;;6196744;28;20065;-69
2021/03/06 15:45:52;;;;;;;5.50;3.95;;;20.00;45.70;;;;;;6197608;28;20030;-68
2021/03/06 15:48:53;;;;;;;6.32;4.07;;;20.00;45.70;;;;;;6196485;28;20065;-69
2021/03/06 15:51:54;;;;;;;5.85;4.05;;;20.00;45.70;;;;;;6188870;28;20118;-68